New Nada — 3ELP9 — position and weather

sailwx.info

Track history (hours):
 
Tides and Currents Weather Stations Pressure Air Temp Water Temp Dewpoint Dewpoint Depression Visibility Wind Speed Wind Dir Waves Ship Positions

New Nada

Last reported at 2014-Jul-28 23:06 UTC. Time now 2014-Jul-31 03:23 UTC.
Position N 34°59' E 140°49'.

Length 180 m; beam 32.2 m.

Type: Cargo ship. MMSI: 356005000.

Date/timePositionNaut miles runAvg speedWind from/ knotsBaromVisibWave heightAir tempDewpointWater temp
2014-Jul-28 23:06N 34°59' E 140°49'1820.2
2014-Jul-28 22:12N 34°52' E 140°28'1219.4
2014-Jul-28 21:33N 34°48' E 140°14'1918.3
2014-Jul-28 20:32N 34°41' E 139°53'1818.5
2014-Jul-28 19:34N 34°35' E 139°32'1716.4
2014-Jul-28 18:31N 34°33' E 139°11'3316.7
2014-Jul-28 16:33N 34°28' E 138°32'  
2014-Jul-25 09:04N 34°26' E 138°27'3316.5
2014-Jul-25 07:05N 34°34' E 139°06'1416.4
2014-Jul-25 06:14N 34°36' E 139°23'1115.9
2014-Jul-25 05:31N 34°37' E 139°36'1616.2
2014-Jul-25 04:33N 34°40' E 139°55'1615.3
2014-Jul-25 03:31N 34°41' E 140°14'1514.6
2014-Jul-25 02:27N 34°41' E 140°33'3215.9
2014-Jul-25 00:26N 34°43' E 141°12'1816.4
2014-Jul-24 23:20N 34°43' E 141°34'1616.3
2014-Jul-24 22:23N 34°44' E 141°53'  
Track history (hours):
 
Tides and Currents Weather Stations Pressure Air Temp Water Temp Dewpoint Dewpoint Depression Visibility Wind Speed Wind Dir Waves Ship Positions

New Nada

Last reported at 2014-Jul-28 23:06 UTC. Time now 2014-Jul-31 03:23 UTC.
Position N 34°59' E 140°49'.

Length 180 m; beam 32.2 m.

Type: Cargo ship. MMSI: 356005000.

Date/timePositionNaut miles runAvg speedWind from/ knotsBaromVisibWave heightAir tempDewpointWater temp
2014-Jul-28 23:06N 34°59' E 140°49'1820.2
2014-Jul-28 22:12N 34°52' E 140°28'1219.4
2014-Jul-28 21:33N 34°48' E 140°14'1918.3
2014-Jul-28 20:32N 34°41' E 139°53'1818.5
2014-Jul-28 19:34N 34°35' E 139°32'1716.4
2014-Jul-28 18:31N 34°33' E 139°11'3316.7
2014-Jul-28 16:33N 34°28' E 138°32'  
2014-Jul-25 09:04N 34°26' E 138°27'3316.5
2014-Jul-25 07:05N 34°34' E 139°06'1416.4
2014-Jul-25 06:14N 34°36' E 139°23'1115.9
2014-Jul-25 05:31N 34°37' E 139°36'1616.2
2014-Jul-25 04:33N 34°40' E 139°55'1615.3
2014-Jul-25 03:31N 34°41' E 140°14'1514.6
2014-Jul-25 02:27N 34°41' E 140°33'3215.9
2014-Jul-25 00:26N 34°43' E 141°12'1816.4
2014-Jul-24 23:20N 34°43' E 141°34'1616.3
2014-Jul-24 22:23N 34°44' E 141°53'  

Dump ship's entire track history